createdAt,value
2019-04-03T00:01:18.903Z,100312.00
2019-04-03T00:03:47.692Z,100306.00
2019-04-03T00:06:15.998Z,100305.00
2019-04-03T00:08:44.388Z,100302.00
2019-04-03T00:11:13.031Z,100306.00
2019-04-03T00:13:42.464Z,100303.00
2019-04-03T00:16:11.050Z,100304.00
2019-04-03T00:18:39.521Z,100299.00
2019-04-03T00:21:08.415Z,100292.00
2019-04-03T00:23:37.206Z,100319.00
2019-04-03T00:26:06.080Z,100296.00
2019-04-03T00:28:34.512Z,100303.00
2019-04-03T00:31:04.796Z,100289.00
2019-04-03T00:33:33.371Z,100286.00
2019-04-03T00:36:01.691Z,100279.00
2019-04-03T00:38:32.624Z,100279.00
2019-04-03T00:41:01.316Z,100276.00
2019-04-03T00:43:29.669Z,100275.00
2019-04-03T00:45:58.100Z,100279.00
2019-04-03T00:48:27.198Z,100277.00
2019-04-03T00:50:57.363Z,100266.00
2019-04-03T00:53:27.655Z,100262.00
2019-04-03T00:55:57.045Z,100259.00
2019-04-03T00:58:55.408Z,100265.00
2019-04-03T01:01:24.711Z,100264.00
2019-04-03T01:03:55.162Z,100263.00
2019-04-03T01:06:24.062Z,100251.00
2019-04-03T01:08:52.607Z,100247.00
2019-04-03T01:11:21.464Z,100262.00
2019-04-03T01:13:49.894Z,100247.00
2019-04-03T01:16:18.607Z,100258.00
2019-04-03T01:18:46.944Z,100263.00
2019-04-03T01:21:15.596Z,100257.00
2019-04-03T01:23:43.953Z,100252.00
2019-04-03T01:26:12.419Z,100238.00
2019-04-03T01:28:41.949Z,100254.00
2019-04-03T01:31:14.199Z,100253.00
2019-04-03T01:33:41.926Z,100243.00
2019-04-03T01:36:10.578Z,100239.00
2019-04-03T01:38:40.943Z,100235.00
2019-04-03T01:41:09.473Z,100226.00
2019-04-03T01:43:38.323Z,100239.00
2019-04-03T01:46:07.096Z,100235.00
2019-04-03T01:48:36.061Z,100237.00
2019-04-03T01:51:04.513Z,100229.00
2019-04-03T01:53:33.259Z,100219.00
2019-04-03T01:56:04.538Z,100214.00
2019-04-03T01:58:32.240Z,100227.00
2019-04-03T02:01:03.309Z,100221.00
2019-04-03T02:03:31.883Z,100224.00
2019-04-03T02:06:02.062Z,100216.00
2019-04-03T02:08:30.839Z,100206.00
2019-04-03T02:10:59.790Z,100202.00
2019-04-03T02:13:28.341Z,100201.00
2019-04-03T02:15:56.926Z,100200.00
2019-04-03T02:18:25.889Z,100203.00
2019-04-03T02:20:57.328Z,100199.00
2019-04-03T02:23:25.372Z,100192.00
2019-04-03T02:25:54.036Z,100204.00
2019-04-03T02:28:22.762Z,100202.00
2019-04-03T02:30:51.260Z,100203.00
2019-04-03T02:33:20.137Z,100188.00
2019-04-03T02:35:48.823Z,100190.00
2019-04-03T02:38:19.189Z,100189.00
2019-04-03T02:40:49.544Z,100201.00
2019-04-03T02:43:18.735Z,100195.00
2019-04-03T02:45:47.111Z,100184.00
2019-04-03T02:48:15.661Z,100185.00
2019-04-03T02:50:47.045Z,100189.00
2019-04-03T02:53:14.648Z,100187.00
2019-04-03T02:55:43.263Z,100182.00
2019-04-03T02:58:12.248Z,100187.00
2019-04-03T03:00:41.204Z,100185.00
2019-04-03T03:03:09.920Z,100182.00
2019-04-03T03:05:38.703Z,100192.00
2019-04-03T03:08:09.147Z,100174.00
2019-04-03T03:10:38.307Z,100174.00
2019-04-03T03:13:07.178Z,100171.00
2019-04-03T03:15:36.989Z,100175.00
2019-04-03T03:18:05.428Z,100177.00
2019-04-03T03:20:39.196Z,100187.00
2019-04-03T03:23:06.902Z,100173.00
2019-04-03T03:25:35.855Z,100171.00
2019-04-03T03:28:04.691Z,100166.00
2019-04-03T03:30:43.473Z,100177.00
2019-04-03T03:33:24.112Z,100174.00
2019-04-03T03:35:41.597Z,100173.00
2019-04-03T03:38:06.993Z,100161.00
2019-04-03T03:40:37.265Z,100166.00
2019-04-03T03:43:07.893Z,100169.00
2019-04-03T03:45:37.123Z,100166.00
2019-04-03T03:48:09.375Z,100170.00
2019-04-03T03:50:36.962Z,100163.00
2019-04-03T03:53:10.240Z,100175.00
2019-04-03T03:55:37.599Z,100165.00
2019-04-03T03:58:11.045Z,100163.00
2019-04-03T04:00:37.732Z,100164.00
2019-04-03T04:03:10.036Z,100176.00
2019-04-03T04:05:37.636Z,100173.00
2019-04-03T04:08:09.442Z,100176.00
2019-04-03T04:10:38.210Z,100168.00
2019-04-03T04:13:07.239Z,100169.00
2019-04-03T04:15:36.553Z,100169.00
2019-04-03T04:18:05.423Z,100167.00
2019-04-03T04:20:36.657Z,100166.00
2019-04-03T04:23:05.634Z,100167.00
2019-04-03T04:25:35.506Z,100167.00
2019-04-03T04:28:06.698Z,100166.00
2019-04-03T04:30:35.798Z,100175.00
2019-04-03T04:33:04.372Z,100165.00
2019-04-03T04:35:33.099Z,100175.00
2019-04-03T04:38:01.787Z,100174.00
2019-04-03T04:40:31.310Z,100184.00
2019-04-03T04:43:03.643Z,100171.00
2019-04-03T04:45:34.461Z,100168.00
2019-04-03T04:48:05.162Z,100164.00
2019-04-03T04:50:33.926Z,100181.00
2019-04-03T04:53:02.785Z,100164.00
2019-04-03T04:55:34.441Z,100164.00
2019-04-03T04:58:04.759Z,100161.00
2019-04-03T05:00:32.735Z,100169.00
2019-04-03T05:03:02.164Z,100174.00
2019-04-03T05:05:31.408Z,100163.00
2019-04-03T05:08:01.994Z,100173.00
2019-04-03T05:10:30.156Z,100166.00
2019-04-03T05:12:59.409Z,100165.00
2019-04-03T05:15:28.363Z,100166.00
2019-04-03T05:17:57.709Z,100165.00
2019-04-03T05:20:26.907Z,100177.00
2019-04-03T05:22:56.338Z,100185.00
2019-04-03T05:25:24.917Z,100163.00
2019-04-03T05:27:53.341Z,100160.00
2019-04-03T05:30:31.552Z,100167.00
2019-04-03T05:33:00.041Z,100160.00
2019-04-03T05:35:30.517Z,100164.00
2019-04-03T05:37:59.467Z,100183.00
2019-04-03T05:40:28.157Z,100170.00
2019-04-03T05:42:59.251Z,100178.00
2019-04-03T05:45:27.348Z,100159.00
2019-04-03T05:47:58.155Z,100167.00
2019-04-03T05:50:27.251Z,100165.00
2019-04-03T05:52:56.317Z,100162.00
2019-04-03T05:55:25.000Z,100161.00
2019-04-03T05:57:53.560Z,100172.00
2019-04-03T06:00:22.227Z,100180.00
2019-04-03T06:02:52.686Z,100163.00
2019-04-03T06:05:21.219Z,100163.00
2019-04-03T06:07:49.905Z,100186.00
2019-04-03T06:10:18.597Z,100160.00
2019-04-03T06:12:47.574Z,100164.00
2019-04-03T06:15:16.278Z,100173.00
2019-04-03T06:17:44.949Z,100153.00
2019-04-03T06:20:13.609Z,100158.00
2019-04-03T06:22:43.211Z,100163.00
2019-04-03T06:25:13.920Z,100158.00
2019-04-03T06:27:45.515Z,100163.00
2019-04-03T06:30:14.388Z,100184.00
2019-04-03T06:32:43.307Z,100149.00
2019-04-03T06:35:13.646Z,100162.00
2019-04-03T06:37:43.347Z,100158.00
2019-04-03T06:40:12.645Z,100169.00
2019-04-03T06:42:44.126Z,100161.00
2019-04-03T06:45:15.416Z,100167.00
2019-04-03T06:47:42.668Z,100177.00
2019-04-03T06:50:16.825Z,100156.00
2019-04-03T06:52:44.166Z,100180.00
2019-04-03T06:55:13.004Z,100172.00
2019-04-03T06:57:41.939Z,100185.00
2019-04-03T07:00:12.354Z,100180.00
2019-04-03T07:02:41.222Z,100173.00
2019-04-03T07:05:10.978Z,100174.00
2019-04-03T07:07:39.866Z,100174.00
2019-04-03T07:10:09.730Z,100181.00
2019-04-03T07:12:38.681Z,100188.00
2019-04-03T07:15:07.894Z,100182.00
2019-04-03T07:17:36.472Z,100187.00
2019-04-03T07:20:13.447Z,100188.00
2019-04-03T07:22:36.369Z,100210.00
2019-04-03T07:25:05.996Z,100208.00
2019-04-03T07:27:36.600Z,100213.00
2019-04-03T07:30:07.832Z,100203.00
2019-04-03T07:32:36.950Z,100206.00
2019-04-03T07:35:09.414Z,100209.00
2019-04-03T07:37:37.304Z,100236.00
2019-04-03T07:40:06.944Z,100215.00
2019-04-03T07:42:36.260Z,100221.00
2019-04-03T07:45:05.852Z,100228.00
2019-04-03T07:47:35.733Z,100230.00
2019-04-03T07:50:06.697Z,100237.00
2019-04-03T07:52:37.600Z,100233.00
2019-04-03T07:55:07.861Z,100241.00
2019-04-03T07:57:37.231Z,100232.00
2019-04-03T08:00:07.960Z,100249.00
2019-04-03T08:02:36.579Z,100261.00
2019-04-03T08:05:08.238Z,100263.00
2019-04-03T08:07:37.395Z,100279.00
2019-04-03T08:10:06.674Z,100264.00
2019-04-03T08:12:36.089Z,100270.00
2019-04-03T08:15:06.925Z,100265.00
2019-04-03T08:17:35.999Z,100258.00
2019-04-03T08:20:05.964Z,100263.00
2019-04-03T08:22:34.974Z,100269.00
2019-04-03T08:25:04.926Z,100266.00
2019-04-03T08:27:33.688Z,100263.00
2019-04-03T08:30:03.554Z,100280.00
2019-04-03T08:32:32.332Z,100261.00
2019-04-03T08:35:03.785Z,100270.00
2019-04-03T08:37:33.238Z,100266.00
2019-04-03T08:40:02.341Z,100275.00
2019-04-03T08:42:32.647Z,100274.00
2019-04-03T08:45:05.723Z,100270.00
2019-04-03T08:47:33.194Z,100266.00
2019-04-03T08:50:02.682Z,100268.00
2019-04-03T08:52:31.295Z,100256.00
2019-04-03T08:55:02.250Z,100270.00
2019-04-03T08:57:31.059Z,100269.00
2019-04-03T09:00:01.078Z,100262.00
2019-04-03T09:02:30.254Z,100265.00
2019-04-03T09:04:59.002Z,100265.00
2019-04-03T09:07:27.994Z,100259.00
2019-04-03T09:10:00.206Z,100253.00
2019-04-03T09:12:27.613Z,100270.00
2019-04-03T09:14:57.807Z,100264.00
2019-04-03T09:17:27.222Z,100264.00
2019-04-03T09:19:57.276Z,100247.00
2019-04-03T09:22:26.534Z,100243.00
2019-04-03T09:24:55.500Z,100256.00
2019-04-03T09:27:24.673Z,100255.00
2019-04-03T09:29:53.975Z,100264.00
2019-04-03T09:32:23.456Z,100249.00
2019-04-03T09:34:52.965Z,100248.00
2019-04-03T09:37:21.940Z,100245.00
2019-04-03T09:39:50.773Z,100230.00
2019-04-03T09:42:21.213Z,100242.00
2019-04-03T09:44:50.191Z,100235.00
2019-04-03T09:47:19.574Z,100240.00
2019-04-03T09:49:48.468Z,100221.00
2019-04-03T09:52:17.750Z,100227.00
2019-04-03T09:54:46.779Z,100218.00
2019-04-03T09:57:17.412Z,100224.00
2019-04-03T09:59:47.316Z,100214.00
2019-04-03T10:02:18.733Z,100221.00
2019-04-03T10:04:47.048Z,100214.00
2019-04-03T10:07:15.671Z,100208.00
2019-04-03T10:09:44.928Z,100205.00
2019-04-03T10:12:14.054Z,100187.00
2019-04-03T10:14:42.777Z,100192.00
2019-04-03T10:17:14.419Z,100195.00
2019-04-03T10:19:45.597Z,100195.00
2019-04-03T10:22:14.038Z,100196.00
2019-04-03T10:24:42.980Z,100182.00
2019-04-03T10:27:12.010Z,100194.00
2019-04-03T10:29:40.950Z,100192.00
2019-04-03T10:32:10.187Z,100189.00
2019-04-03T10:34:39.911Z,100168.00
2019-04-03T10:37:08.791Z,100180.00
2019-04-03T10:39:41.976Z,100196.00
2019-04-03T10:42:08.634Z,100181.00
2019-04-03T10:44:37.387Z,100170.00
2019-04-03T10:47:06.808Z,100174.00
2019-04-03T10:49:35.396Z,100155.00
2019-04-03T10:52:05.351Z,100153.00
2019-04-03T10:54:33.978Z,100147.00
2019-04-03T10:57:03.496Z,100168.00
2019-04-03T10:59:34.057Z,100152.00
2019-04-03T11:02:03.102Z,100164.00
2019-04-03T11:04:31.936Z,100153.00
2019-04-03T11:07:04.737Z,100165.00
2019-04-03T11:09:33.662Z,100123.00
2019-04-03T11:12:02.748Z,100135.00
2019-04-03T11:14:31.306Z,100137.00
2019-04-03T11:17:00.555Z,100138.00
2019-04-03T11:19:30.454Z,100147.00
2019-04-03T11:21:59.794Z,100130.00
2019-04-03T11:24:29.254Z,100124.00
2019-04-03T11:26:58.289Z,100143.00
2019-04-03T11:29:27.272Z,100117.00
2019-04-03T11:31:56.074Z,100123.00
2019-04-03T11:34:24.953Z,100104.00
2019-04-03T11:36:54.081Z,100110.00
2019-04-03T11:39:23.191Z,100110.00
2019-04-03T11:41:54.530Z,100108.00
2019-04-03T11:44:22.175Z,100093.00
2019-04-03T11:46:51.176Z,100099.00
2019-04-03T11:49:20.872Z,100104.00
2019-04-03T11:51:50.233Z,100100.00
2019-04-03T11:54:18.996Z,100080.00
2019-04-03T11:56:48.009Z,100087.00
2019-04-03T11:59:17.350Z,100078.00
2019-04-03T12:01:48.080Z,100085.00
2019-04-03T12:04:16.989Z,100070.00
2019-04-03T12:06:45.751Z,100051.00
2019-04-03T12:09:15.082Z,100061.00
2019-04-03T12:11:43.839Z,100047.00
2019-04-03T12:14:12.870Z,100039.00
2019-04-03T12:16:42.415Z,100051.00
2019-04-03T12:19:11.733Z,100051.00
2019-04-03T12:21:41.258Z,100048.00
2019-04-03T12:24:09.765Z,100036.00
2019-04-03T12:26:38.736Z,100028.00
2019-04-03T12:29:08.362Z,100047.00
2019-04-03T12:31:37.008Z,100033.00
2019-04-03T12:34:06.779Z,100036.00
2019-04-03T12:36:35.824Z,100027.00
2019-04-03T12:39:13.378Z,100026.00
2019-04-03T12:41:43.172Z,100018.00
2019-04-03T12:44:14.047Z,100037.00
2019-04-03T12:46:42.796Z,100000.00
2019-04-03T12:49:11.581Z,100011.00
2019-04-03T12:51:41.196Z,100001.00
2019-04-03T12:54:12.446Z,99988.00
2019-04-03T12:56:40.573Z,100013.00
2019-04-03T12:59:10.052Z,99995.00
2019-04-03T13:01:38.971Z,99999.00
2019-04-03T13:04:09.475Z,99995.00
2019-04-03T13:06:40.574Z,99997.00
2019-04-03T13:09:12.865Z,99985.00
2019-04-03T13:11:41.417Z,99981.00
2019-04-03T13:14:22.101Z,99979.00
2019-04-03T13:16:41.750Z,99976.00
2019-04-03T13:19:12.488Z,99982.00
2019-04-03T13:21:42.841Z,99994.00
2019-04-03T13:24:12.666Z,100008.00
2019-04-03T13:26:41.240Z,99973.00
2019-04-03T13:29:10.675Z,99975.00
2019-04-03T13:31:39.610Z,99974.00
2019-04-03T13:34:11.197Z,99967.00
2019-04-03T13:36:39.411Z,99968.00
2019-04-03T13:39:08.703Z,99961.00
2019-04-03T13:41:37.818Z,99959.00
2019-04-03T13:44:06.935Z,99981.00
2019-04-03T13:46:36.525Z,99972.00
2019-04-03T13:49:06.067Z,99951.00
2019-04-03T13:51:35.150Z,99955.00
2019-04-03T13:54:06.983Z,99959.00
2019-04-03T13:56:35.250Z,99947.00
2019-04-03T13:59:04.715Z,99947.00
2019-04-03T14:01:33.754Z,99946.00
2019-04-03T14:04:02.625Z,99944.00
2019-04-03T14:06:35.390Z,99931.00
2019-04-03T14:09:05.647Z,99928.00
2019-04-03T14:11:35.489Z,99931.00
2019-04-03T14:14:04.437Z,99939.00
2019-04-03T14:16:34.786Z,99921.00
2019-04-03T14:19:04.851Z,99925.00
2019-04-03T14:21:35.264Z,99934.00
2019-04-03T14:24:07.060Z,99933.00
2019-04-03T14:26:35.507Z,99921.00
2019-04-03T14:29:07.100Z,99926.00
2019-04-03T14:31:37.675Z,99904.00
2019-04-03T14:34:06.293Z,99911.00
2019-04-03T14:36:34.992Z,99911.00
2019-04-03T14:39:08.369Z,99914.00
2019-04-03T14:41:37.326Z,99916.00
2019-04-03T14:44:07.547Z,99914.00
2019-04-03T14:46:36.305Z,99892.00
2019-04-03T14:49:04.821Z,99902.00
2019-04-03T14:51:34.183Z,99904.00
2019-04-03T14:54:03.131Z,99891.00
2019-04-03T14:56:33.236Z,99896.00
2019-04-03T14:59:02.859Z,99915.00
2019-04-03T15:01:31.264Z,99902.00
2019-04-03T15:04:01.496Z,99911.00
2019-04-03T15:06:30.492Z,99896.00
2019-04-03T15:09:01.826Z,99893.00
2019-04-03T15:11:30.816Z,99890.00
2019-04-03T15:13:59.836Z,99879.00
2019-04-03T15:16:31.801Z,99891.00
2019-04-03T15:19:02.708Z,99902.00
2019-04-03T15:21:31.856Z,99902.00
2019-04-03T15:24:02.418Z,99894.00
2019-04-03T15:26:31.482Z,99902.00
2019-04-03T15:29:02.168Z,99887.00
2019-04-03T15:31:31.173Z,99907.00
2019-04-03T15:34:00.491Z,99880.00
2019-04-03T15:36:30.485Z,99892.00
2019-04-03T15:38:59.876Z,99868.00
2019-04-03T15:41:33.044Z,99888.00
2019-04-03T15:44:00.463Z,99871.00
2019-04-03T15:46:30.101Z,99876.00
2019-04-03T15:48:59.778Z,99873.00
2019-04-03T15:51:29.801Z,99878.00
2019-04-03T15:53:59.719Z,99862.00
2019-04-03T15:56:29.248Z,99874.00
2019-04-03T15:58:59.207Z,99884.00
2019-04-03T16:01:28.067Z,99877.00
2019-04-03T16:03:59.114Z,99871.00
2019-04-03T16:06:27.300Z,99855.00
2019-04-03T16:08:55.907Z,99851.00
2019-04-03T16:11:28.549Z,99844.00
2019-04-03T16:13:57.129Z,99851.00
2019-04-03T16:16:27.344Z,99856.00
2019-04-03T16:18:57.087Z,99849.00
2019-04-03T16:21:28.106Z,99849.00
2019-04-03T16:23:57.228Z,99855.00
2019-04-03T16:26:25.741Z,99840.00
2019-04-03T16:28:56.520Z,99849.00
2019-04-03T16:31:25.204Z,99846.00
2019-04-03T16:33:53.846Z,99856.00
2019-04-03T16:36:22.291Z,99833.00
2019-04-03T16:38:50.968Z,99835.00
2019-04-03T16:41:19.949Z,99843.00
2019-04-03T16:43:49.269Z,99827.00
2019-04-03T16:46:17.954Z,99833.00
2019-04-03T16:48:49.060Z,99844.00
2019-04-03T16:51:18.164Z,99848.00
2019-04-03T16:53:47.198Z,99835.00
2019-04-03T16:56:17.544Z,99831.00
2019-04-03T16:58:46.396Z,99827.00
2019-04-03T17:01:15.146Z,99829.00
2019-04-03T17:03:43.673Z,99830.00
2019-04-03T17:06:15.349Z,99833.00
2019-04-03T17:08:43.212Z,99826.00
2019-04-03T17:11:12.707Z,99845.00
2019-04-03T17:13:43.415Z,99843.00
2019-04-03T17:16:14.469Z,99834.00
2019-04-03T17:18:42.911Z,99829.00
2019-04-03T17:21:11.887Z,99835.00
2019-04-03T17:23:43.316Z,99834.00
2019-04-03T17:26:11.305Z,99841.00
2019-04-03T17:28:41.640Z,99842.00
2019-04-03T17:31:10.103Z,99832.00
2019-04-03T17:33:38.687Z,99840.00
2019-04-03T17:36:08.035Z,99838.00
2019-04-03T17:38:36.817Z,99837.00
2019-04-03T17:41:07.050Z,99844.00
2019-04-03T17:43:35.869Z,99839.00
2019-04-03T17:46:04.722Z,99836.00
2019-04-03T17:48:33.229Z,99842.00
2019-04-03T17:51:02.652Z,99832.00
2019-04-03T17:53:32.107Z,99834.00
2019-04-03T17:56:01.149Z,99838.00
2019-04-03T17:58:29.898Z,99834.00
2019-04-03T18:00:59.149Z,99841.00
2019-04-03T18:03:27.823Z,99839.00
2019-04-03T18:05:57.536Z,99838.00
2019-04-03T18:08:26.192Z,99837.00
2019-04-03T18:10:54.759Z,99852.00
2019-04-03T18:13:24.049Z,99837.00
2019-04-03T18:15:54.616Z,99850.00
2019-04-03T18:18:23.050Z,99845.00
2019-04-03T18:20:51.687Z,99835.00
2019-04-03T18:23:21.737Z,99840.00
2019-04-03T18:25:51.136Z,99849.00
2019-04-03T18:28:21.086Z,99837.00
2019-04-03T18:30:50.092Z,99843.00
2019-04-03T18:33:18.941Z,99842.00
2019-04-03T18:35:47.413Z,99822.00
2019-04-03T18:38:15.937Z,99832.00
2019-04-03T18:40:46.321Z,99832.00
2019-04-03T18:43:15.144Z,99847.00
2019-04-03T18:45:43.856Z,99828.00
2019-04-03T18:48:16.303Z,99835.00
2019-04-03T18:50:43.734Z,99832.00
2019-04-03T18:53:12.814Z,99822.00
2019-04-03T18:55:44.599Z,99822.00
2019-04-03T18:58:12.474Z,99808.00
2019-04-03T19:00:41.429Z,99820.00
2019-04-03T19:03:10.177Z,99823.00
2019-04-03T19:05:40.958Z,99829.00
2019-04-03T19:08:13.358Z,99828.00
2019-04-03T19:10:40.445Z,99818.00
2019-04-03T19:13:08.945Z,99825.00
2019-04-03T19:15:38.943Z,99822.00
2019-04-03T19:18:19.441Z,99819.00
2019-04-03T19:20:40.383Z,99826.00
2019-04-03T19:23:11.002Z,99825.00
2019-04-03T19:25:39.276Z,99813.00
2019-04-03T19:28:08.414Z,99832.00
2019-04-03T19:30:38.011Z,99813.00
2019-04-03T19:33:06.915Z,99820.00
2019-04-03T19:35:35.718Z,99837.00
2019-04-03T19:38:05.028Z,99828.00
2019-04-03T19:40:33.944Z,99831.00
2019-04-03T19:43:02.892Z,99818.00
2019-04-03T19:45:31.313Z,99820.00
2019-04-03T19:48:00.089Z,99820.00
2019-04-03T19:50:31.830Z,99822.00
2019-04-03T19:53:01.617Z,99826.00
2019-04-03T19:55:31.309Z,99826.00
2019-04-03T19:58:00.016Z,99822.00
2019-04-03T20:00:29.907Z,99809.00
2019-04-03T20:02:58.615Z,99808.00
2019-04-03T20:05:26.925Z,99806.00
2019-04-03T20:07:58.715Z,99802.00
2019-04-03T20:10:26.203Z,99797.00
2019-04-03T20:12:55.132Z,99810.00
2019-04-03T20:15:23.900Z,99818.00
2019-04-03T20:17:54.535Z,99807.00
2019-04-03T20:20:24.616Z,99797.00
2019-04-03T20:22:53.606Z,99803.00
2019-04-03T20:25:22.264Z,99798.00
2019-04-03T20:27:52.249Z,99797.00
2019-04-03T20:30:21.517Z,99810.00
2019-04-03T20:32:50.493Z,99807.00
2019-04-03T20:35:18.927Z,99800.00
2019-04-03T20:37:47.509Z,99802.00
2019-04-03T20:40:16.320Z,99790.00
2019-04-03T20:42:44.904Z,99800.00
2019-04-03T20:45:13.904Z,99795.00
2019-04-03T20:47:42.627Z,99794.00
2019-04-03T20:50:11.768Z,99810.00
2019-04-03T20:52:40.272Z,99795.00
2019-04-03T20:55:08.768Z,99793.00
2019-04-03T20:57:37.369Z,99794.00
2019-04-03T21:00:11.517Z,99788.00
2019-04-03T21:02:41.936Z,99790.00
2019-04-03T21:05:11.107Z,99791.00
2019-04-03T21:07:39.472Z,99782.00
2019-04-03T21:10:08.305Z,99787.00
2019-04-03T21:12:37.001Z,99796.00
2019-04-03T21:15:08.691Z,99787.00
2019-04-03T21:17:36.694Z,99784.00
2019-04-03T21:20:05.565Z,99778.00
2019-04-03T21:22:35.356Z,99775.00
2019-04-03T21:25:05.433Z,99774.00
2019-04-03T21:27:35.130Z,99777.00
2019-04-03T21:30:04.611Z,99773.00
2019-04-03T21:32:33.145Z,99775.00
2019-04-03T21:35:03.907Z,99764.00
2019-04-03T21:37:32.204Z,99771.00
2019-04-03T21:40:04.683Z,99755.00
2019-04-03T21:42:32.305Z,99770.00
2019-04-03T21:45:02.750Z,99763.00
2019-04-03T21:47:32.926Z,99767.00
2019-04-03T21:50:03.857Z,99763.00
2019-04-03T21:52:32.752Z,99774.00
2019-04-03T21:55:04.589Z,99760.00
2019-04-03T21:57:31.932Z,99752.00
2019-04-03T22:00:01.974Z,99769.00
2019-04-03T22:02:30.757Z,99750.00
2019-04-03T22:04:59.187Z,99741.00
2019-04-03T22:07:28.574Z,99741.00
2019-04-03T22:09:57.520Z,99748.00
2019-04-03T22:12:25.998Z,99745.00
2019-04-03T22:14:54.555Z,99742.00
2019-04-03T22:17:23.260Z,99744.00
2019-04-03T22:19:51.976Z,99748.00
2019-04-03T22:22:20.691Z,99761.00
2019-04-03T22:24:51.250Z,99750.00
2019-04-03T22:27:20.171Z,99747.00
2019-04-03T22:29:50.665Z,99750.00
2019-04-03T22:32:19.125Z,99747.00
2019-04-03T22:34:47.460Z,99743.00
2019-04-03T22:37:15.833Z,99746.00
2019-04-03T22:39:44.604Z,99752.00
2019-04-03T22:42:15.076Z,99742.00
2019-04-03T22:44:44.164Z,99733.00
2019-04-03T22:47:12.750Z,99744.00
2019-04-03T22:49:41.634Z,99739.00
2019-04-03T22:52:10.392Z,99733.00
2019-04-03T22:54:39.307Z,99734.00
2019-04-03T22:57:07.901Z,99740.00
2019-04-03T22:59:36.839Z,99734.00
2019-04-03T23:02:05.634Z,99731.00
2019-04-03T23:04:34.588Z,99741.00
2019-04-03T23:07:03.516Z,99739.00
2019-04-03T23:09:32.485Z,99732.00
2019-04-03T23:12:03.062Z,99734.00
2019-04-03T23:14:32.328Z,99731.00
2019-04-03T23:17:01.516Z,99725.00
2019-04-03T23:19:32.349Z,99727.00
2019-04-03T23:22:02.784Z,99728.00
2019-04-03T23:24:31.671Z,99718.00
2019-04-03T23:27:03.222Z,99721.00
2019-04-03T23:29:32.127Z,99720.00
2019-04-03T23:32:01.262Z,99723.00
2019-04-03T23:34:30.086Z,99718.00
2019-04-03T23:36:59.134Z,99707.00
2019-04-03T23:39:28.385Z,99717.00
2019-04-03T23:41:57.527Z,99716.00
2019-04-03T23:44:26.419Z,99704.00
2019-04-03T23:46:55.415Z,99707.00
2019-04-03T23:49:24.055Z,99708.00
2019-04-03T23:51:52.792Z,99703.00
2019-04-03T23:54:21.746Z,99704.00
2019-04-03T23:56:50.769Z,99702.00
2019-04-03T23:59:19.412Z,99703.00
